Aviation Digital Data Service (ADDS)

Output produced by TAFs form (0913 UTC 24 October 2017)
found at http://aviationweather.gov/adds/tafs/
 
KDRO 240520Z 2406/2506 09006KT P6SM SKC 
     FM241900 14004KT P6SM SKC 
     FM242100 21005KT P6SM SKC 
     FM250200 08004KT P6SM SKC